Time;durP1;ratioP1;P1;durP2;ratioP2;P2;SDS_P1;SDS_P2;PMS_P1;PMS_P2;Temp;Humidity;BMP_temperature;BMP_pressure;BME280_temperature;BME280_humidity;BME280_pressure;Samples;Min_cycle;Max_cycle;Signal;HPM_P1;HPM_P2
2022/09/27 00:02:28;;;;;;;2.10;1.40;;;11.40;99.90;;;;;;5050829;28;20396;-76
2022/09/27 00:05:13;;;;;;;2.10;1.47;;;11.20;99.90;;;;;;5066829;28;20949;-76
2022/09/27 00:07:59;;;;;;;2.93;1.77;;;11.20;99.90;;;;;;5057173;28;20486;-77
2022/09/27 00:10:46;;;;;;;3.87;2.00;;;11.30;99.90;;;;;;5049556;28;20454;-76
2022/09/27 00:13:32;;;;;;;3.00;1.53;;;11.20;99.90;;;;;;5059604;28;20935;-77
2022/09/27 00:16:17;;;;;;;3.47;1.70;;;11.30;99.90;;;;;;5048522;28;20714;-77
2022/09/27 00:19:05;;;;;;;2.00;1.30;;;11.30;99.90;;;;;;5045709;28;20447;-75
2022/09/27 00:21:51;;;;;;;3.40;1.70;;;11.30;99.90;;;;;;5064081;28;20426;-77
2022/09/27 00:24:36;;;;;;;2.67;1.43;;;11.40;99.90;;;;;;5053136;28;20995;-77
2022/09/27 00:27:25;;;;;;;9.13;1.50;;;11.30;99.90;;;;;;5049973;28;20928;-77
2022/09/27 00:30:12;;;;;;;6.33;2.70;;;11.30;99.90;;;;;;5048158;28;20544;-77
2022/09/27 00:32:58;;;;;;;4.17;1.30;;;11.40;99.90;;;;;;5068553;28;20430;-77
2022/09/27 00:35:43;;;;;;;2.07;1.40;;;11.30;99.90;;;;;;5053358;28;20443;-77
2022/09/27 00:38:29;;;;;;;2.10;1.33;;;11.30;99.90;;;;;;5054539;28;20961;-77
2022/09/27 00:41:17;;;;;;;7.03;2.10;;;11.30;99.90;;;;;;5063467;28;20442;-76
2022/09/27 00:44:42;;;;;;;1.90;1.40;;;11.40;99.90;;;;;;5066915;28;20415;-76
2022/09/27 00:47:33;;;;;;;3.70;1.90;;;11.20;99.90;;;;;;5065850;28;20467;-77
2022/09/27 00:50:27;;;;;;;4.30;1.77;;;11.20;99.90;;;;;;5055729;28;20448;-77
2022/09/27 00:53:16;;;;;;;3.20;1.37;;;11.10;99.90;;;;;;5072810;28;20473;-76
2022/09/27 00:56:08;;;;;;;6.13;1.83;;;11.10;99.90;;;;;;5067571;28;20440;-76
2022/09/27 00:58:57;;;;;;;2.67;1.83;;;11.10;99.90;;;;;;5056439;28;20810;-76
2022/09/27 01:01:45;;;;;;;6.60;2.57;;;11.10;99.90;;;;;;5061437;28;20528;-76
2022/09/27 01:04:32;;;;;;;3.40;2.70;;;11.00;99.90;;;;;;5060738;28;20414;-76
2022/09/27 01:07:17;;;;;;;3.00;2.17;;;11.00;99.90;;;;;;5058086;28;20728;-76
2022/09/27 01:10:04;;;;;;;2.60;2.20;;;11.00;99.90;;;;;;5045535;28;20920;-76
2022/09/27 01:12:59;;;;;;;5.40;2.63;;;11.00;99.90;;;;;;5060471;28;20517;-76
2022/09/27 01:15:52;;;;;;;4.40;3.73;;;11.00;99.90;;;;;;5066383;28;20952;-77
2022/09/27 01:18:45;;;;;;;7.87;2.73;;;11.00;99.90;;;;;;5049341;28;20427;-77
2022/09/27 01:21:41;;;;;;;8.87;3.33;;;11.10;99.90;;;;;;5064397;28;20425;-76
2022/09/27 01:24:41;;;;;;;4.50;3.60;;;11.10;99.90;;;;;;5058148;28;20502;-77
2022/09/27 01:27:56;;;;;;;4.40;4.00;;;11.10;99.90;;;;;;5049218;28;20405;-76
2022/09/27 01:30:48;;;;;;;5.00;4.50;;;11.20;99.90;;;;;;5045152;28;20453;-77
2022/09/27 01:33:42;;;;;;;4.50;4.10;;;11.20;99.90;;;;;;5055407;28;20478;-77
2022/09/27 01:36:34;;;;;;;4.40;4.00;;;11.30;99.90;;;;;;5059315;28;20963;-76
2022/09/27 01:39:34;;;;;;;4.50;4.10;;;11.30;99.90;;;;;;5041874;28;20477;-76
2022/09/27 01:42:24;;;;;;;4.70;4.20;;;11.40;99.90;;;;;;5063084;28;20435;-77
2022/09/27 01:45:15;;;;;;;5.13;4.57;;;11.40;99.90;;;;;;5065368;28;20565;-76
2022/09/27 01:48:08;;;;;;;10.20;6.00;;;11.40;99.90;;;;;;5058777;28;21461;-76
2022/09/27 01:50:58;;;;;;;4.97;4.47;;;11.50;99.90;;;;;;5069980;28;20483;-77
2022/09/27 01:53:47;;;;;;;6.27;4.47;;;11.50;99.90;;;;;;5068298;28;20431;-76
2022/09/27 01:56:35;;;;;;;5.50;4.97;;;11.40;99.90;;;;;;5058543;28;20427;-77
2022/09/27 01:59:28;;;;;;;6.03;5.43;;;11.30;99.90;;;;;;5048772;28;20443;-77
2022/09/27 02:02:18;;;;;;;4.67;4.03;;;11.30;99.90;;;;;;5067184;28;20895;-76
2022/09/27 02:05:08;;;;;;;3.67;3.30;;;11.30;99.90;;;;;;5064065;28;20431;-76
2022/09/27 02:07:57;;;;;;;5.77;3.67;;;11.30;99.90;;;;;;5054939;28;20451;-77
2022/09/27 02:10:45;;;;;;;7.10;2.97;;;11.40;99.90;;;;;;5066495;28;20474;-76
2022/09/27 02:13:38;;;;;;;4.60;2.90;;;11.30;99.90;;;;;;5060926;28;20426;-76
2022/09/27 02:16:33;;;;;;;4.30;3.13;;;11.30;99.90;;;;;;5070422;28;20438;-76
2022/09/27 02:19:31;;;;;;;3.50;2.93;;;11.40;99.90;;;;;;5052034;28;21094;-76
2022/09/27 02:22:27;;;;;;;5.93;3.23;;;11.40;99.90;;;;;;5064646;28;20417;-77
2022/09/27 02:25:18;;;;;;;4.23;3.40;;;11.50;99.90;;;;;;5065294;28;20670;-77
2022/09/27 02:28:10;;;;;;;4.07;2.80;;;11.40;99.90;;;;;;5049825;28;20517;-77
2022/09/27 02:30:56;;;;;;;3.50;2.80;;;11.30;99.90;;;;;;5056672;28;20470;-77
2022/09/27 02:33:46;;;;;;;4.07;3.00;;;11.20;99.90;;;;;;5065040;28;20430;-77
2022/09/27 02:36:32;;;;;;;5.27;2.90;;;11.30;99.90;;;;;;5057359;28;20427;-76
2022/09/27 02:39:20;;;;;;;4.10;3.53;;;11.30;99.90;;;;;;5053445;28;21013;-77
2022/09/27 02:42:07;;;;;;;5.73;3.20;;;11.40;99.90;;;;;;5068885;28;20417;-77
2022/09/27 02:44:52;;;;;;;3.60;3.13;;;11.40;99.90;;;;;;5064321;28;20809;-77
2022/09/27 02:47:53;;;;;;;5.07;3.47;;;11.50;99.90;;;;;;5054012;28;21068;-77
2022/09/27 02:51:07;;;;;;;5.00;3.40;;;11.40;99.90;;;;;;5061353;28;20479;-76
2022/09/27 02:54:04;;;;;;;4.53;4.13;;;11.40;99.90;;;;;;5071414;28;20873;-76
2022/09/27 02:57:11;;;;;;;9.27;3.63;;;11.40;99.90;;;;;;5055699;28;20419;-77
2022/09/27 03:00:06;;;;;;;4.20;3.67;;;11.40;99.90;;;;;;5060021;28;20442;-77
2022/09/27 03:02:57;;;;;;;3.50;3.20;;;11.30;99.90;;;;;;5067686;28;20798;-77
2022/09/27 03:05:47;;;;;;;6.20;3.63;;;11.30;99.90;;;;;;5064610;28;20447;-77
2022/09/27 03:08:33;;;;;;;5.23;3.57;;;11.30;99.90;;;;;;5045194;28;20562;-77
2022/09/27 03:11:19;;;;;;;8.10;3.60;;;11.30;99.90;;;;;;5059141;28;20456;-77
2022/09/27 03:14:06;;;;;;;4.57;3.67;;;11.30;99.90;;;;;;5066235;28;20426;-76
2022/09/27 03:16:52;;;;;;;4.53;3.53;;;11.30;99.90;;;;;;5057691;28;20792;-77
2022/09/27 03:19:37;;;;;;;5.07;3.67;;;11.30;99.90;;;;;;5061947;28;20427;-76
2022/09/27 03:22:23;;;;;;;5.13;4.10;;;11.30;99.90;;;;;;5056565;28;20423;-76
2022/09/27 03:25:09;;;;;;;5.30;3.47;;;11.40;99.90;;;;;;5066174;28;20398;-76
2022/09/27 03:27:55;;;;;;;5.40;4.33;;;11.30;99.90;;;;;;5051206;28;20477;-76
2022/09/27 03:30:44;;;;;;;5.30;4.20;;;11.30;99.90;;;;;;5066728;28;20482;-77
2022/09/27 03:33:30;;;;;;;10.03;4.27;;;11.30;99.90;;;;;;5058011;28;20947;-77
2022/09/27 03:36:15;;;;;;;8.17;3.77;;;11.30;99.90;;;;;;5063023;28;20443;-77
2022/09/27 03:39:01;;;;;;;12.80;4.03;;;11.30;99.90;;;;;;5054399;28;20401;-76
2022/09/27 03:41:47;;;;;;;4.50;3.40;;;11.40;99.90;;;;;;5067634;28;20423;-76
2022/09/27 03:44:33;;;;;;;6.50;3.83;;;11.30;99.90;;;;;;5058621;28;20409;-76
2022/09/27 03:47:21;;;;;;;7.60;3.27;;;11.40;99.90;;;;;;5043284;28;20600;-76
2022/09/27 03:50:08;;;;;;;6.30;3.40;;;11.40;99.90;;;;;;5065002;28;20441;-77
2022/09/27 03:52:54;;;;;;;4.97;2.97;;;11.50;99.90;;;;;;5056611;28;20398;-76
2022/09/27 03:55:40;;;;;;;8.13;2.57;;;11.40;99.90;;;;;;5058399;28;20459;-76
2022/09/27 03:58:25;;;;;;;6.60;2.63;;;11.30;99.90;;;;;;5053123;28;20948;-76
2022/09/27 04:01:11;;;;;;;6.37;2.53;;;11.40;99.90;;;;;;5063199;28;20424;-76
2022/09/27 04:03:59;;;;;;;4.60;2.27;;;11.30;99.90;;;;;;5062311;28;20924;-76
2022/09/27 04:06:45;;;;;;;17.57;2.93;;;11.20;99.90;;;;;;5052041;28;20979;-76
2022/09/27 04:09:30;;;;;;;4.53;2.07;;;11.20;99.90;;;;;;5054649;28;20427;-76
2022/09/27 04:12:16;;;;;;;7.77;2.70;;;11.10;99.90;;;;;;5045846;28;20401;-76
2022/09/27 04:15:01;;;;;;;5.33;3.00;;;11.10;99.90;;;;;;5066850;28;20541;-75
2022/09/27 04:17:47;;;;;;;6.07;2.10;;;11.10;99.90;;;;;;5053283;28;20442;-75
2022/09/27 04:20:35;;;;;;;10.87;2.33;;;11.00;99.90;;;;;;5090318;22;20480;-78
2022/09/27 04:23:21;;;;;;;8.93;2.70;;;11.10;99.90;;;;;;5081475;28;20396;-78
2022/09/27 04:26:07;;;;;;;2.30;1.70;;;11.10;99.90;;;;;;5077123;28;20603;-79
2022/09/27 04:28:52;;;;;;;4.37;2.30;;;11.10;99.90;;;;;;5080737;28;20453;-79
2022/09/27 04:31:38;;;;;;;14.17;2.33;;;11.20;99.90;;;;;;5087501;28;20993;-78
2022/09/27 04:36:25;;;;;;;4.53;1.80;;;11.20;99.90;;;;;;5083774;28;20396;-79
2022/09/27 04:37:37;;;;;;;3.83;2.03;;;11.10;99.90;;;;;;5061749;28;20421;-79
2022/09/27 04:40:23;;;;;;;14.30;1.57;;;11.10;99.90;;;;;;5080109;28;20779;-78
2022/09/27 04:43:08;;;;;;;3.43;1.50;;;11.00;99.90;;;;;;5090796;28;20958;-78
2022/09/27 04:45:54;;;;;;;4.07;2.40;;;10.90;99.90;;;;;;5079990;28;20929;-78
2022/09/27 04:48:41;;;;;;;5.00;1.40;;;10.90;99.90;;;;;;5088396;28;20525;-78
2022/09/27 04:51:27;;;;;;;4.47;2.00;;;11.00;99.90;;;;;;5075099;28;20436;-78
2022/09/27 04:54:14;;;;;;;2.80;1.67;;;11.00;99.90;;;;;;5086613;28;20413;-78
2022/09/27 04:57:00;;;;;;;7.63;1.60;;;11.00;99.90;;;;;;5072555;28;20437;-78
2022/09/27 04:59:46;;;;;;;7.50;1.93;;;11.00;99.90;;;;;;5076535;28;20975;-79
2022/09/27 05:02:32;;;;;;;4.30;1.50;;;11.00;99.90;;;;;;5081876;28;20492;-79
2022/09/27 05:05:17;;;;;;;4.50;1.53;;;11.00;99.90;;;;;;5078593;28;20413;-78
2022/09/27 05:08:03;;;;;;;4.40;1.33;;;11.00;99.90;;;;;;5080378;28;20894;-78
2022/09/27 05:10:51;;;;;;;3.13;1.40;;;11.00;99.90;;;;;;5083067;28;20497;-78
2022/09/27 05:13:36;;;;;;;7.70;1.40;;;10.90;99.90;;;;;;5077447;28;20421;-78
2022/09/27 05:16:23;;;;;;;2.60;1.70;;;11.10;99.90;;;;;;5073027;28;20437;-79
2022/09/27 05:19:09;;;;;;;2.07;1.53;;;11.00;99.90;;;;;;5085812;28;20450;-78
2022/09/27 05:21:55;;;;;;;2.33;1.20;;;11.00;99.90;;;;;;5086645;28;20431;-79
2022/09/27 05:24:40;;;;;;;2.80;1.83;;;11.10;99.90;;;;;;5086797;28;20796;-79
2022/09/27 05:27:29;;;;;;;3.80;1.50;;;11.00;99.90;;;;;;5079367;28;20775;-78
2022/09/27 05:30:15;;;;;;;2.53;1.50;;;10.90;99.90;;;;;;5085154;28;20829;-79
2022/09/27 05:33:01;;;;;;;1.90;1.20;;;10.80;99.90;;;;;;5085290;28;20429;-79
2022/09/27 05:35:52;;;;;;;2.00;1.30;;;10.80;99.90;;;;;;5075299;28;20458;-79
2022/09/27 05:38:38;;;;;;;4.77;1.77;;;10.80;99.90;;;;;;5082879;28;20430;-78
2022/09/27 05:41:25;;;;;;;2.80;1.60;;;10.80;99.90;;;;;;5083591;28;20418;-79
2022/09/27 05:44:13;;;;;;;2.23;1.30;;;10.90;99.90;;;;;;5090035;28;20477;-79
2022/09/27 05:47:03;;;;;;;5.40;1.43;;;10.90;99.90;;;;;;5072763;28;20514;-78
2022/09/27 05:49:48;;;;;;;3.97;1.40;;;11.00;99.90;;;;;;5079735;28;20425;-77
2022/09/27 05:52:34;;;;;;;3.57;1.53;;;11.10;99.90;;;;;;5085320;28;20945;-79
2022/09/27 05:55:20;;;;;;;2.50;1.43;;;11.20;99.90;;;;;;5071935;28;20426;-79
2022/09/27 05:58:08;;;;;;;2.53;1.47;;;11.20;99.90;;;;;;5076511;28;20430;-79
2022/09/27 06:00:55;;;;;;;2.80;1.40;;;11.20;99.90;;;;;;5083041;28;20423;-78
2022/09/27 06:03:41;;;;;;;3.80;1.37;;;11.10;99.90;;;;;;5081338;28;20514;-78
2022/09/27 06:06:27;;;;;;;3.40;1.33;;;10.90;99.90;;;;;;5070508;28;20439;-78
2022/09/27 06:09:13;;;;;;;2.53;1.50;;;11.00;99.90;;;;;;5085014;28;20416;-78
2022/09/27 06:11:59;;;;;;;2.93;1.30;;;10.90;99.90;;;;;;5074594;28;20486;-77
2022/09/27 06:14:45;;;;;;;2.67;1.50;;;10.90;99.90;;;;;;5076718;28;20877;-77
2022/09/27 06:17:34;;;;;;;8.90;1.60;;;10.90;99.90;;;;;;5082960;28;20434;-78
2022/09/27 06:20:20;;;;;;;3.10;1.70;;;10.70;99.90;;;;;;5070044;28;20457;-78
2022/09/27 06:23:07;;;;;;;3.13;1.40;;;10.70;99.90;;;;;;5082249;28;20759;-78
2022/09/27 06:25:54;;;;;;;5.20;1.77;;;10.70;99.90;;;;;;5070616;28;20443;-78
2022/09/27 06:28:40;;;;;;;4.20;1.70;;;10.70;99.90;;;;;;5088237;28;20482;-78
2022/09/27 06:31:25;;;;;;;5.10;1.60;;;10.80;99.90;;;;;;5081245;28;21021;-79
2022/09/27 06:34:12;;;;;;;3.37;1.70;;;10.70;99.90;;;;;;5073083;28;20796;-78
2022/09/27 06:36:58;;;;;;;6.53;1.80;;;10.70;99.90;;;;;;5072712;28;20848;-78
2022/09/27 06:39:44;;;;;;;6.20;1.33;;;10.60;99.90;;;;;;5079181;28;20823;-78
2022/09/27 06:42:29;;;;;;;8.00;1.90;;;10.70;99.90;;;;;;5086397;28;20815;-77
2022/09/27 06:45:16;;;;;;;3.83;1.83;;;10.70;99.90;;;;;;5073216;28;20449;-78
2022/09/27 06:48:02;;;;;;;2.80;1.63;;;10.80;99.90;;;;;;5079307;28;20421;-78
2022/09/27 06:50:49;;;;;;;3.30;1.60;;;10.80;99.90;;;;;;5083097;28;20449;-78
2022/09/27 06:53:34;;;;;;;3.50;1.57;;;10.70;99.90;;;;;;5080350;28;20478;-78
2022/09/27 06:56:20;;;;;;;4.90;1.40;;;10.80;99.90;;;;;;5072086;28;20476;-77
2022/09/27 07:02:09;;;;;;;2.27;1.23;;;10.90;99.90;;;;;;5084000;28;20518;-78
2022/09/27 07:04:55;;;;;;;5.67;1.67;;;11.00;99.90;;;;;;5061334;28;20522;-77
2022/09/27 07:07:42;;;;;;;2.47;1.37;;;10.90;99.90;;;;;;5084091;28;20404;-78
2022/09/27 07:10:33;;;;;;;3.30;1.30;;;11.00;99.90;;;;;;5073790;28;21024;-79
2022/09/27 07:13:19;;;;;;;2.67;1.47;;;11.00;99.90;;;;;;5066700;28;20938;-78
2022/09/27 07:16:05;;;;;;;6.53;1.70;;;11.00;99.90;;;;;;5074811;28;20935;-78
2022/09/27 07:18:51;;;;;;;1.77;1.30;;;11.10;99.90;;;;;;5083222;28;20913;-78
2022/09/27 07:21:37;;;;;;;2.43;1.33;;;11.00;99.90;;;;;;5084313;28;20477;-78
2022/09/27 07:24:24;;;;;;;1.87;1.23;;;11.00;99.90;;;;;;5065404;28;20447;-78
2022/09/27 07:27:10;;;;;;;2.00;1.40;;;11.00;99.90;;;;;;5083030;28;20444;-79
2022/09/27 07:29:56;;;;;;;2.63;1.20;;;11.20;99.90;;;;;;5082938;28;20424;-78
2022/09/27 07:32:42;;;;;;;2.60;1.30;;;11.10;99.90;;;;;;5084827;28;20514;-77
2022/09/27 07:35:29;;;;;;;2.50;1.20;;;11.20;99.90;;;;;;5075041;28;20438;-78
2022/09/27 07:38:15;;;;;;;1.40;0.87;;;11.20;99.90;;;;;;5082593;28;20423;-78
2022/09/27 07:41:07;;;;;;;5.00;1.00;;;11.10;99.90;;;;;;5088123;28;20429;-78
2022/09/27 07:43:53;;;;;;;3.47;0.83;;;11.20;99.90;;;;;;5069530;28;20505;-78
2022/09/27 07:46:38;;;;;;;2.40;1.03;;;11.10;99.90;;;;;;5080035;28;20513;-78
2022/09/27 07:49:24;;;;;;;1.30;0.80;;;11.10;99.90;;;;;;5079649;28;20893;-79
2022/09/27 07:52:10;;;;;;;3.00;1.00;;;11.10;99.90;;;;;;5086888;28;20444;-79
2022/09/27 07:54:55;;;;;;;2.40;1.00;;;11.20;99.90;;;;;;5075171;28;20455;-79
2022/09/27 07:57:43;;;;;;;4.20;1.20;;;11.20;99.90;;;;;;5082360;28;20519;-79
2022/09/27 08:00:29;;;;;;;1.87;0.90;;;11.10;99.90;;;;;;5088621;28;20501;-79
2022/09/27 08:03:16;;;;;;;5.13;1.37;;;11.10;99.90;;;;;;5074736;28;20486;-79
2022/09/27 08:06:04;;;;;;;1.60;0.90;;;11.20;99.90;;;;;;5081493;28;20431;-79
2022/09/27 08:08:49;;;;;;;2.80;1.13;;;11.10;99.90;;;;;;5085766;28;20426;-79
2022/09/27 08:11:36;;;;;;;1.87;1.07;;;11.10;99.90;;;;;;5089675;28;20470;-79
2022/09/27 08:14:23;;;;;;;1.60;1.00;;;11.00;99.90;;;;;;5067539;28;20416;-78
2022/09/27 08:17:11;;;;;;;1.77;1.00;;;11.00;99.90;;;;;;5087456;28;20920;-79
2022/09/27 08:19:57;;;;;;;1.97;0.90;;;11.10;99.90;;;;;;5080305;28;20440;-79
2022/09/27 08:22:43;;;;;;;2.47;1.00;;;11.20;99.90;;;;;;5081681;28;21280;-78
2022/09/27 08:25:29;;;;;;;3.23;1.20;;;11.10;99.90;;;;;;5076502;28;20434;-79
2022/09/27 08:28:15;;;;;;;3.77;1.90;;;11.30;99.90;;;;;;5088287;28;20468;-79
2022/09/27 08:31:02;;;;;;;4.70;0.93;;;11.30;99.90;;;;;;5086010;28;20788;-79
2022/09/27 08:33:50;;;;;;;2.10;1.27;;;11.40;99.90;;;;;;5081396;28;20449;-79
2022/09/27 08:36:36;;;;;;;2.87;1.20;;;11.30;99.90;;;;;;5082879;28;20433;-79
2022/09/27 08:39:22;;;;;;;1.83;1.00;;;11.40;99.90;;;;;;5086622;28;20445;-79
2022/09/27 08:42:19;;;;;;;1.93;1.10;;;11.50;99.90;;;;;;5083966;28;20789;-78
2022/09/27 08:45:12;;;;;;;7.63;2.00;;;11.50;99.90;;;;;;5084385;28;20531;-79
2022/09/27 08:48:01;;;;;;;2.43;0.90;;;11.40;99.90;;;;;;5090054;28;20429;-78
2022/09/27 08:50:48;;;;;;;1.90;1.10;;;11.50;99.90;;;;;;5084130;28;20420;-79
2022/09/27 08:53:40;;;;;;;2.37;1.00;;;11.50;99.90;;;;;;5068433;28;20404;-79
2022/09/27 08:56:26;;;;;;;2.93;1.30;;;11.50;99.90;;;;;;5076366;28;20490;-79
2022/09/27 08:59:15;;;;;;;7.30;1.20;;;11.50;99.90;;;;;;5087268;28;20534;-79
2022/09/27 09:02:01;;;;;;;1.60;1.00;;;11.50;99.90;;;;;;5078753;28;20481;-79
2022/09/27 09:04:51;;;;;;;2.10;1.10;;;11.60;99.90;;;;;;5079639;28;20393;-79
2022/09/27 09:07:49;;;;;;;5.33;1.53;;;11.60;99.90;;;;;;5083283;28;20397;-79
2022/09/27 09:14:21;;;;;;;3.03;0.90;;;11.70;99.90;;;;;;5073946;28;20421;-79
2022/09/27 09:17:18;;;;;;;5.67;1.90;;;11.80;99.90;;;;;;5060289;28;20435;-79
2022/09/27 09:20:17;;;;;;;2.90;1.13;;;11.90;99.90;;;;;;5082803;28;20462;-79
2022/09/27 09:23:23;;;;;;;1.73;0.90;;;11.90;99.90;;;;;;5062209;28;20580;-79
2022/09/27 09:26:17;;;;;;;2.67;1.23;;;12.00;99.90;;;;;;5089663;28;20407;-79
2022/09/27 09:29:25;;;;;;;1.70;1.00;;;12.10;99.90;;;;;;5089791;28;20471;-78
2022/09/27 09:32:22;;;;;;;3.57;1.37;;;12.00;99.90;;;;;;5079778;28;20459;-77
2022/09/27 09:35:15;;;;;;;1.90;0.83;;;12.00;99.90;;;;;;5080226;28;20535;-77
2022/09/27 09:38:03;;;;;;;1.90;1.10;;;11.80;99.90;;;;;;5079127;28;20412;-77
2022/09/27 09:40:56;;;;;;;1.73;0.93;;;11.70;99.90;;;;;;5090674;28;20466;-77
2022/09/27 09:43:48;;;;;;;1.97;1.10;;;11.70;99.90;;;;;;5064897;28;20435;-77
2022/09/27 09:46:39;;;;;;;2.10;1.20;;;11.80;99.90;;;;;;5075638;28;20528;-76
2022/09/27 09:49:30;;;;;;;5.97;2.00;;;11.80;99.90;;;;;;5081234;28;20424;-77
2022/09/27 09:52:19;;;;;;;2.30;1.20;;;11.80;99.90;;;;;;5071621;28;20547;-77
2022/09/27 09:55:16;;;;;;;1.50;1.00;;;11.90;99.90;;;;;;5086145;28;20431;-76
2022/09/27 09:58:13;;;;;;;6.03;1.33;;;11.90;99.90;;;;;;5082800;28;20410;-76
2022/09/27 10:01:10;;;;;;;12.03;1.60;;;11.90;99.90;;;;;;5074574;28;20880;-76
2022/09/27 10:03:56;;;;;;;1.90;1.10;;;12.00;99.90;;;;;;5080561;28;20421;-76
2022/09/27 10:06:42;;;;;;;3.17;1.47;;;12.10;99.90;;;;;;5083113;28;20412;-77
2022/09/27 10:09:29;;;;;;;3.40;1.60;;;12.20;99.90;;;;;;5069288;28;20512;-77
2022/09/27 10:12:14;;;;;;;6.33;2.27;;;12.20;99.90;;;;;;5064327;28;20995;-77
2022/09/27 10:15:03;;;;;;;2.80;1.50;;;12.30;99.90;;;;;;5084968;28;20412;-77
2022/09/27 10:17:52;;;;;;;2.90;1.53;;;12.30;99.90;;;;;;5077976;28;20393;-77
2022/09/27 10:20:42;;;;;;;7.70;1.50;;;12.50;99.90;;;;;;5073939;22;20499;-76
2022/09/27 10:23:28;;;;;;;3.47;1.70;;;12.40;99.90;;;;;;5058528;28;20397;-77
2022/09/27 10:26:20;;;;;;;3.90;1.70;;;12.20;99.90;;;;;;5063380;28;20547;-77
2022/09/27 10:29:25;;;;;;;4.80;2.90;;;12.10;99.90;;;;;;5060963;28;20398;-76
2022/09/27 10:32:23;;;;;;;3.97;1.77;;;12.20;99.90;;;;;;5053965;28;20474;-77
2022/09/27 10:35:37;;;;;;;3.47;1.73;;;12.30;99.90;;;;;;5049968;28;20480;-77
2022/09/27 10:38:26;;;;;;;6.90;1.83;;;12.60;99.90;;;;;;5036049;28;20569;-76
2022/09/27 10:41:25;;;;;;;5.03;3.57;;;12.80;99.90;;;;;;5052189;28;20818;-76
2022/09/27 10:44:25;;;;;;;3.90;2.07;;;12.80;99.90;;;;;;5045738;28;20885;-77
2022/09/27 10:47:21;;;;;;;3.37;1.83;;;12.70;99.90;;;;;;5046775;28;20451;-77
2022/09/27 10:50:15;;;;;;;6.13;2.00;;;12.70;99.90;;;;;;5043120;28;20574;-76
2022/09/27 10:53:06;;;;;;;5.93;1.83;;;12.80;99.90;;;;;;5042746;28;20603;-77
2022/09/27 10:55:53;;;;;;;2.80;1.77;;;12.80;99.90;;;;;;5035250;28;20572;-76
2022/09/27 10:58:40;;;;;;;2.90;1.83;;;12.90;99.90;;;;;;5049040;28;20936;-77
2022/09/27 11:01:27;;;;;;;3.70;1.90;;;12.90;99.90;;;;;;5039818;28;20418;-76
2022/09/27 11:04:21;;;;;;;5.53;1.90;;;12.80;99.90;;;;;;5041453;28;20843;-77
2022/09/27 11:07:15;;;;;;;5.03;2.43;;;12.80;99.90;;;;;;5051487;28;20394;-77
2022/09/27 11:10:02;;;;;;;10.77;2.40;;;12.80;99.90;;;;;;5048271;28;20454;-77
2022/09/27 11:13:06;;;;;;;2.80;2.20;;;13.00;99.90;;;;;;5041154;28;20967;-76
2022/09/27 11:16:10;;;;;;;2.63;1.77;;;13.00;99.90;;;;;;5046413;28;20906;-77
2022/09/27 11:19:07;;;;;;;5.47;2.43;;;13.00;99.90;;;;;;5044491;28;20414;-76
2022/09/27 11:22:01;;;;;;;8.03;3.07;;;13.00;99.90;;;;;;5041628;28;20484;-77
2022/09/27 11:25:00;;;;;;;5.50;3.23;;;12.90;99.90;;;;;;5042526;28;20430;-77
2022/09/27 11:27:58;;;;;;;2.90;1.87;;;12.70;99.90;;;;;;5045392;28;20451;-77
2022/09/27 11:30:51;;;;;;;3.57;2.27;;;12.70;99.90;;;;;;5043936;28;20551;-77
2022/09/27 11:33:58;;;;;;;2.67;2.10;;;12.60;99.90;;;;;;5047524;28;20450;-76
2022/09/27 11:36:59;;;;;;;3.60;1.90;;;12.50;99.90;;;;;;5041774;28;20926;-77
2022/09/27 11:39:59;;;;;;;5.23;2.40;;;12.60;99.90;;;;;;5041410;28;20509;-77
2022/09/27 11:43:08;;;;;;;3.40;2.50;;;12.70;99.90;;;;;;5043796;28;20799;-77
2022/09/27 11:46:06;;;;;;;3.23;2.47;;;12.70;99.90;;;;;;5057977;28;20949;-77
2022/09/27 11:49:23;;;;;;;5.03;2.67;;;12.60;99.90;;;;;;5044126;28;20812;-77
2022/09/27 11:52:27;;;;;;;4.57;2.23;;;12.70;99.90;;;;;;5041468;28;20441;-77
2022/09/27 11:55:23;;;;;;;3.60;2.03;;;12.70;99.90;;;;;;5043328;28;20447;-76
2022/09/27 11:58:21;;;;;;;4.63;2.10;;;12.70;99.90;;;;;;5056410;28;20447;-77
2022/09/27 12:01:19;;;;;;;4.10;2.23;;;12.70;99.90;;;;;;5039161;28;20433;-78
2022/09/27 12:04:46;;;;;;;11.67;2.67;;;12.60;99.90;;;;;;5049812;28;20510;-77
2022/09/27 12:07:41;;;;;;;4.90;2.07;;;12.40;99.90;;;;;;5006029;28;20972;-77
2022/09/27 12:10:27;;;;;;;5.50;2.40;;;12.30;99.90;;;;;;5042340;28;20995;-77
2022/09/27 12:13:15;;;;;;;3.30;2.40;;;12.20;99.90;;;;;;5042659;28;20445;-77
2022/09/27 12:16:02;;;;;;;5.40;2.10;;;12.10;99.90;;;;;;5045847;28;21031;-77
2022/09/27 12:18:50;;;;;;;6.93;2.63;;;12.10;99.90;;;;;;5048545;28;20439;-77
2022/09/27 12:21:35;;;;;;;6.70;2.10;;;12.20;99.90;;;;;;5043881;28;20443;-77
2022/09/27 12:24:24;;;;;;;2.67;2.00;;;12.20;99.90;;;;;;5037866;28;20795;-78
2022/09/27 12:27:16;;;;;;;2.63;1.80;;;12.30;99.90;;;;;;5055072;28;20963;-78
2022/09/27 12:30:06;;;;;;;5.00;2.23;;;12.50;99.90;;;;;;5042819;28;21022;-78
2022/09/27 12:33:01;;;;;;;6.90;3.33;;;12.80;99.90;;;;;;5050495;28;21044;-77
2022/09/27 12:35:50;;;;;;;9.20;3.53;;;13.10;99.90;;;;;;5046095;28;20447;-77
2022/09/27 12:38:42;;;;;;;3.63;1.80;;;13.40;99.90;;;;;;5046476;28;20415;-77
2022/09/27 12:41:36;;;;;;;2.90;1.80;;;13.80;99.90;;;;;;5045413;28;20422;-77
2022/09/27 12:44:21;;;;;;;2.80;1.50;;;14.10;99.90;;;;;;5047316;28;20498;-78
2022/09/27 12:47:15;;;;;;;2.37;1.77;;;14.50;99.90;;;;;;5065583;28;20499;-78
2022/09/27 12:50:08;;;;;;;4.43;1.70;;;14.60;99.90;;;;;;5048510;28;20827;-78
2022/09/27 12:53:03;;;;;;;3.30;1.80;;;14.60;99.90;;;;;;5055037;28;20866;-78
2022/09/27 12:56:02;;;;;;;5.90;1.90;;;14.80;99.90;;;;;;5059888;28;20434;-77
2022/09/27 12:59:20;;;;;;;5.90;1.70;;;14.70;99.90;;;;;;5059018;28;20430;-78
2022/09/27 13:02:25;;;;;;;4.90;1.60;;;14.60;99.90;;;;;;5037500;28;20436;-77
2022/09/27 13:05:44;;;;;;;4.53;1.90;;;14.10;99.90;;;;;;5051682;28;20450;-77
2022/09/27 13:08:46;;;;;;;5.87;2.17;;;13.80;99.90;;;;;;5032342;28;20605;-78
2022/09/27 13:11:46;;;;;;;5.87;1.73;;;13.60;99.90;;;;;;5051012;28;20426;-78
2022/09/27 13:14:39;;;;;;;2.67;1.80;;;13.50;99.90;;;;;;5049787;28;20430;-78
2022/09/27 13:17:47;;;;;;;3.20;1.73;;;13.50;99.90;;;;;;5065242;28;20414;-78
2022/09/27 13:20:43;;;;;;;2.50;1.60;;;13.60;99.90;;;;;;5050089;28;20483;-77
2022/09/27 13:23:52;;;;;;;4.30;1.60;;;13.60;99.90;;;;;;5060822;28;20455;-78
2022/09/27 13:26:47;;;;;;;3.83;1.83;;;13.70;99.90;;;;;;5056726;28;20893;-77
2022/09/27 13:29:36;;;;;;;3.13;1.47;;;13.70;99.90;;;;;;5045716;28;20535;-77
2022/09/27 13:32:23;;;;;;;3.47;1.57;;;13.70;99.90;;;;;;5055739;28;20852;-78
2022/09/27 13:35:20;;;;;;;2.70;1.47;;;13.70;99.90;;;;;;5049187;28;20845;-78
2022/09/27 13:38:19;;;;;;;3.13;1.50;;;13.40;99.90;;;;;;5060713;28;20450;-78
2022/09/27 13:41:15;;;;;;;5.63;1.50;;;13.30;99.90;;;;;;5055691;28;20467;-78
2022/09/27 13:44:08;;;;;;;4.57;1.50;;;13.30;99.90;;;;;;5049715;28;20426;-77
2022/09/27 13:46:59;;;;;;;3.43;1.23;;;13.30;99.90;;;;;;5049994;28;20469;-77
2022/09/27 13:49:48;;;;;;;5.83;1.33;;;13.20;99.90;;;;;;5056138;28;20624;-78
2022/09/27 13:52:36;;;;;;;2.70;1.30;;;13.10;99.90;;;;;;5059653;28;20612;-78
2022/09/27 13:55:46;;;;;;;2.90;1.50;;;13.00;99.90;;;;;;5063614;28;20457;-78
2022/09/27 13:58:47;;;;;;;2.17;1.40;;;12.80;99.90;;;;;;5056290;28;20430;-78
2022/09/27 14:01:36;;;;;;;2.23;1.03;;;12.80;99.90;;;;;;5049831;28;20422;-77
2022/09/27 14:04:29;;;;;;;6.20;1.40;;;12.70;99.90;;;;;;5056668;28;20473;-77
2022/09/27 14:07:17;;;;;;;2.53;1.00;;;12.70;99.90;;;;;;5058517;28;20481;-78
2022/09/27 14:10:04;;;;;;;3.00;1.03;;;12.70;99.90;;;;;;5056902;28;20827;-77
2022/09/27 14:12:52;;;;;;;2.10;0.90;;;12.90;99.90;;;;;;5047458;28;20471;-78
2022/09/27 14:15:39;;;;;;;2.60;0.90;;;12.80;99.90;;;;;;5049950;28;20610;-78
2022/09/27 14:18:25;;;;;;;2.17;1.00;;;12.80;99.90;;;;;;5064041;28;20389;-78
2022/09/27 14:21:21;;;;;;;1.90;0.80;;;12.80;99.90;;;;;;5053471;28;20466;-78
2022/09/27 14:24:43;;;;;;;1.73;0.70;;;12.80;99.90;;;;;;5053186;28;20456;-78
2022/09/27 14:27:30;;;;;;;1.60;0.60;;;12.70;99.90;;;;;;5025106;28;20452;-77
2022/09/27 14:30:17;;;;;;;1.63;0.90;;;12.60;99.90;;;;;;5047226;28;20511;-78
2022/09/27 14:33:03;;;;;;;3.67;0.77;;;12.60;99.90;;;;;;5042559;28;20430;-78
2022/09/27 14:38:57;;;;;;;1.50;0.73;;;12.60;99.90;;;;;;5038083;28;20483;-78
2022/09/27 14:41:43;;;;;;;1.50;0.70;;;12.60;99.90;;;;;;5043619;28;20430;-77
2022/09/27 14:44:30;;;;;;;2.47;0.87;;;12.60;99.90;;;;;;5038560;28;20426;-76
2022/09/27 14:47:20;;;;;;;3.10;0.80;;;12.50;99.90;;;;;;5057017;28;20450;-76
2022/09/27 14:50:17;;;;;;;2.23;0.60;;;12.60;99.90;;;;;;5041958;28;20488;-76
2022/09/27 14:53:04;;;;;;;1.97;0.90;;;12.50;99.90;;;;;;5054371;28;20462;-76
2022/09/27 14:55:53;;;;;;;3.13;1.00;;;12.60;99.90;;;;;;5049585;28;20942;-76
2022/09/27 14:58:39;;;;;;;3.10;0.70;;;12.60;99.90;;;;;;5053043;28;20510;-76